Detall de PIREP

Printer-friendly versionPDF version

[2014/08/11 16:59:00]
Flight IATA:CT3209
Pilot Number:012
Company ICAO:CAT
Aircraft Type:B738/F
PAX:128
Departing Airport: EBBR
Destination Airport: LEPA
Alternate Airport:LEBL
Online: VATSIM
Route:CIV UN872 MEDIL UQ237 DISAK UN857 DIRMO UN855 PPG UP84 LORES
Flight Level:F370
No Slew and time accel
No pause
Crash detect
Detect pilot in Cockpit between each 30 and 45 minutes
16:59 Zero fuel Weight: 116523 Lbs, Fuel Weight: 18611 Lbs
16:59 VATSIM:EBBR 111650Z 22013KT 9999 FEW033 18/11 Q1012 NOSIG
16:59 VATSIM:LEPA 111630Z 23006KT 200V270 9999 FEW035 30/22 Q1013 NOSIG
16:59 Parking Brakes off
17:04 Take-off
17:04 Take off Weight: 134630 Lbs
17:04 Wind: 221º @ 012 Knots Heading: 197º
17:04 POS N50º 53´ 48´´ E004º 29´ 42´´
17:04 Gear Up: 161 Knots
17:04 Flaps:3 at 161 Knots
17:04 Flaps:2 at 194 Knots
17:04 Flaps:1 at 199 Knots
17:04 Flaps:0 at 214 Knots
17:19 Wind:259º@099 Knots Heading: 214º Ground Speed: 400 Knots Altitude 33313 ft
17:22 TOC
17:22 Fuel Weight: 14666 Lb
17:34 Wind:256º@101 Knots Heading: 214º Ground Speed: 388 Knots Altitude 37024 ft
17:49 Wind:260º@095 Knots Heading: 170º Ground Speed: 474 Knots Altitude 37109 ft
18:04 Wind:261º@070 Knots Heading: 187º Ground Speed: 452 Knots Altitude 37171 ft
18:19 Wind:268º@054 Knots Heading: 186º Ground Speed: 464 Knots Altitude 37083 ft
18:31 TOD
18:31 Fuel Weight: 8601 Lb
18:34 Wind:273º@025 Knots Heading: 185º Ground Speed: 436 Knots Altitude 31279 ft
18:48 Flaps:1 at 214 Knots
18:49 Wind:327º@004 Knots Heading: 212º Ground Speed: 237 Knots Altitude 5583 ft
18:49 Flaps:2 at 210 Knots
18:52 Gear Down: 185 Knots
18:52 Flaps:3 at 184 Knots
18:52 Flaps:4 at 175 Knots
18:53 Flaps:5 at 187 Knots
18:53 Flaps:6 at 176 Knots
18:53 Flaps:7 at 174 Knots
18:56 TouchDown:Rate -178 ft/min Speed: 129 Knots
18:56 VATSIM:LEPA 111830Z 05013KT 9999 FEW035 29/23 Q1013 NOSIG
18:56 Land
18:56 Wind:049º@013 Knots
18:56 Heading: 059º
18:56 Flight Duration: 01:52
18:56 Landing Weight: 123935 Lbs
18:56 POS N39º 33´ 11´´ E002º 43´ 25´´
18:58 Parking brakes on
18:58 Block to Block Duration: 01:59
18:58 Final Fuel: 7308 Lbls
18:58 Spent Fuel: 11302 Lbls
18:58 Flight Length: 746 NM
18:58 TOD Land Length: 129 NM

Exportar CSV

Powered by Drupal - Modified by Danger4k